GAMA weather

Markala Airport
Markala, S├ęgou Region, Mali

Public forecast

Using degrees Celsius for public forecast. Weather courtesy of forecast.io.

METAR (pilot weather report)

Report is more than 6 hours old.

Closest report is Koutiala Airport, 86.5 nm (160.2 km) SSE. Retrieved 2019/02/04 15:00 UTC (2 months ago):

GAKO 041500Z 04010KT CAVOK 36/02 Q////

TAF (pilot weather forecast)

Closest forecast is Modibo Keita International Airport, 130.5 nm (241.7 km) WSW. Retrieved 2019/03/25 00:09 UTC (6 hours ago):

TAF GABS 242300Z 2500/2606 34008G18KT CAVOK PROB40 TEMPO 2500/2506 4500 SHRA FEW040CB